createdAt,value
2022-07-29T00:00:03.738Z,21.07
2022-07-29T00:03:26.679Z,21.05
2022-07-29T00:06:29.564Z,21.04
2022-07-29T00:09:33.269Z,20.99
2022-07-29T00:12:45.003Z,20.89
2022-07-29T00:15:47.876Z,20.81
2022-07-29T00:18:50.745Z,20.75
2022-07-29T00:21:53.828Z,20.70
2022-07-29T00:24:56.795Z,20.67
2022-07-29T00:27:59.868Z,20.66
2022-07-29T00:31:03.096Z,20.66
2022-07-29T00:34:07.651Z,20.60
2022-07-29T00:37:10.674Z,20.57
2022-07-29T00:40:13.903Z,20.52
2022-07-29T00:43:18.410Z,20.44
2022-07-29T00:46:21.235Z,20.36
2022-07-29T00:49:24.294Z,20.29
2022-07-29T00:52:27.943Z,20.24
2022-07-29T00:55:31.533Z,20.15
2022-07-29T00:58:36.624Z,20.07
2022-07-29T01:01:40.406Z,20.00
2022-07-29T01:04:43.420Z,20.05
2022-07-29T01:07:54.872Z,20.15
2022-07-29T01:10:58.308Z,20.28
2022-07-29T01:14:02.417Z,20.39
2022-07-29T01:17:13.884Z,20.48
2022-07-29T01:20:42.177Z,20.50
2022-07-29T01:23:52.625Z,20.37
2022-07-29T01:27:03.986Z,20.16
2022-07-29T01:30:07.670Z,20.10
2022-07-29T01:33:36.740Z,20.17
2022-07-29T01:36:55.576Z,20.28
2022-07-29T01:40:03.162Z,20.35
2022-07-29T01:43:22.390Z,20.35
2022-07-29T01:46:34.036Z,20.36
2022-07-29T01:49:40.966Z,20.38
2022-07-29T01:52:51.173Z,20.40
2022-07-29T01:55:54.952Z,20.38
2022-07-29T01:59:05.671Z,20.36
2022-07-29T02:02:11.172Z,20.31
2022-07-29T02:05:17.351Z,20.29
2022-07-29T02:08:22.143Z,20.24
2022-07-29T02:11:25.372Z,20.15
2022-07-29T02:14:32.846Z,20.04
2022-07-29T02:18:06.110Z,20.02
2022-07-29T02:21:15.085Z,20.01
2022-07-29T02:24:20.147Z,19.98
2022-07-29T02:27:24.852Z,19.94
2022-07-29T02:30:29.971Z,19.87
2022-07-29T02:33:34.074Z,19.85
2022-07-29T02:36:38.375Z,19.86
2022-07-29T02:39:45.834Z,19.88
2022-07-29T02:42:49.644Z,19.86
2022-07-29T02:45:56.173Z,19.80
2022-07-29T02:49:20.383Z,19.82
2022-07-29T02:52:32.944Z,19.82
2022-07-29T02:55:46.725Z,19.83
2022-07-29T02:58:56.746Z,19.83
2022-07-29T03:02:01.863Z,19.81
2022-07-29T03:05:29.461Z,19.79
2022-07-29T03:08:33.597Z,19.77
2022-07-29T03:11:42.310Z,19.76
2022-07-29T03:14:54.333Z,19.65
2022-07-29T03:17:59.161Z,19.45
2022-07-29T03:21:02.432Z,19.30
2022-07-29T03:24:10.046Z,19.21
2022-07-29T03:27:14.217Z,19.13
2022-07-29T03:30:21.679Z,19.03
2022-07-29T03:33:25.129Z,18.94
2022-07-29T03:36:28.248Z,18.82
2022-07-29T03:40:02.945Z,18.78
2022-07-29T03:43:08.477Z,18.82
2022-07-29T03:47:08.652Z,18.87
2022-07-29T03:50:15.518Z,18.94
2022-07-29T03:53:19.315Z,18.98
2022-07-29T03:56:24.742Z,19.01
2022-07-29T03:59:28.943Z,18.99
2022-07-29T04:02:33.664Z,18.93
2022-07-29T04:05:36.642Z,18.90
2022-07-29T04:09:45.514Z,18.90
2022-07-29T04:12:48.847Z,18.86
2022-07-29T04:15:52.375Z,18.88
2022-07-29T04:18:55.499Z,18.88
2022-07-29T04:22:00.784Z,18.90
2022-07-29T04:25:04.700Z,18.93
2022-07-29T04:28:08.936Z,18.97
2022-07-29T04:31:13.362Z,19.02
2022-07-29T04:34:16.487Z,19.04
2022-07-29T04:37:19.998Z,19.11
2022-07-29T04:40:23.379Z,19.18
2022-07-29T04:43:27.375Z,19.22
2022-07-29T04:46:30.894Z,19.27
2022-07-29T04:49:33.838Z,19.32
2022-07-29T04:52:37.879Z,19.36
2022-07-29T04:55:48.482Z,19.40
2022-07-29T04:58:52.522Z,19.46
2022-07-29T05:01:56.415Z,19.50
2022-07-29T05:05:02.884Z,19.55
2022-07-29T05:08:36.198Z,19.60
2022-07-29T05:11:40.712Z,19.59
2022-07-29T05:14:46.985Z,19.63
2022-07-29T05:18:11.241Z,19.66
2022-07-29T05:21:22.860Z,19.68
2022-07-29T05:24:33.789Z,19.71
2022-07-29T05:27:38.370Z,19.70
2022-07-29T05:30:44.545Z,19.70
2022-07-29T05:33:48.495Z,19.67
2022-07-29T05:36:54.766Z,19.64
2022-07-29T05:40:02.355Z,19.62
2022-07-29T05:43:11.456Z,19.60
2022-07-29T05:46:18.253Z,19.58
2022-07-29T05:49:26.772Z,19.58
2022-07-29T05:52:30.900Z,19.58
2022-07-29T05:55:35.975Z,19.56
2022-07-29T05:58:52.984Z,19.57
2022-07-29T06:02:01.472Z,19.56
2022-07-29T06:05:17.969Z,19.57
2022-07-29T06:08:28.004Z,19.59
2022-07-29T06:11:31.510Z,19.65
2022-07-29T06:14:34.589Z,19.68
2022-07-29T06:17:37.554Z,19.73
2022-07-29T06:21:00.378Z,19.75
2022-07-29T06:24:03.664Z,19.82
2022-07-29T06:27:06.783Z,19.87
2022-07-29T06:30:10.325Z,19.89
2022-07-29T06:33:18.147Z,19.90
2022-07-29T06:36:20.921Z,19.84
2022-07-29T06:39:25.990Z,19.85
2022-07-29T06:42:28.972Z,19.86
2022-07-29T06:45:35.824Z,19.88
2022-07-29T06:48:41.953Z,19.89
2022-07-29T06:51:47.803Z,19.94
2022-07-29T06:54:50.787Z,19.99
2022-07-29T06:57:53.751Z,20.07
2022-07-29T07:00:58.334Z,20.15
2022-07-29T07:04:01.331Z,20.19
2022-07-29T07:07:04.525Z,20.25
2022-07-29T07:10:09.121Z,20.31
2022-07-29T07:13:12.499Z,20.33
2022-07-29T07:16:15.840Z,20.40
2022-07-29T07:19:20.389Z,20.44
2022-07-29T07:22:23.463Z,20.47
2022-07-29T07:25:26.739Z,20.53
2022-07-29T07:28:30.474Z,20.62
2022-07-29T07:31:34.261Z,20.73
2022-07-29T07:34:39.190Z,20.83
2022-07-29T07:37:42.415Z,20.91
2022-07-29T07:40:47.641Z,21.02
2022-07-29T07:43:50.713Z,21.16
2022-07-29T07:46:54.658Z,21.26
2022-07-29T07:49:58.124Z,21.33
2022-07-29T07:53:03.313Z,21.44
2022-07-29T07:56:12.265Z,21.57
2022-07-29T07:59:15.753Z,21.69
2022-07-29T08:02:18.887Z,21.81
2022-07-29T08:05:22.169Z,21.93
2022-07-29T08:08:25.152Z,22.05
2022-07-29T08:11:29.578Z,22.16
2022-07-29T08:14:38.661Z,22.25
2022-07-29T08:17:42.851Z,22.37
2022-07-29T08:20:46.337Z,22.50
2022-07-29T08:24:00.673Z,22.56
2022-07-29T08:27:12.934Z,22.56
2022-07-29T08:30:29.229Z,22.57
2022-07-29T08:33:32.200Z,22.62
2022-07-29T08:36:39.463Z,22.62
2022-07-29T08:39:42.653Z,22.64
2022-07-29T08:42:45.723Z,22.69
2022-07-29T08:45:51.808Z,22.75
2022-07-29T08:48:56.630Z,22.77
2022-07-29T08:52:00.900Z,22.84
2022-07-29T08:55:05.610Z,22.95
2022-07-29T08:58:09.013Z,23.03
2022-07-29T09:01:22.062Z,23.05
2022-07-29T09:04:28.462Z,23.03
2022-07-29T09:07:34.705Z,23.01
2022-07-29T09:10:38.063Z,22.99
2022-07-29T09:13:41.540Z,22.99
2022-07-29T09:17:02.967Z,22.99
2022-07-29T09:20:15.571Z,23.02
2022-07-29T09:23:23.300Z,23.07
2022-07-29T09:26:32.316Z,23.12
2022-07-29T09:29:36.444Z,23.20
2022-07-29T09:32:59.854Z,23.34
2022-07-29T09:36:08.511Z,23.46
2022-07-29T09:39:12.352Z,23.57
2022-07-29T09:42:29.592Z,23.70
2022-07-29T09:45:34.759Z,23.78
2022-07-29T09:48:37.769Z,23.86
2022-07-29T09:51:41.530Z,23.95
2022-07-29T09:54:46.045Z,24.06
2022-07-29T09:57:49.008Z,24.22
2022-07-29T10:00:53.565Z,24.33
2022-07-29T10:03:56.797Z,24.42
2022-07-29T10:07:04.620Z,24.45
2022-07-29T10:10:08.790Z,24.43
2022-07-29T10:13:16.163Z,24.48
2022-07-29T10:16:20.111Z,24.53
2022-07-29T10:19:24.779Z,24.58
2022-07-29T10:22:52.046Z,24.62
2022-07-29T10:25:51.683Z,24.65
2022-07-29T10:28:54.654Z,24.69
2022-07-29T10:32:16.350Z,24.73
2022-07-29T10:35:56.061Z,24.78
2022-07-29T10:39:22.287Z,24.85
2022-07-29T10:42:33.258Z,24.91
2022-07-29T10:45:38.034Z,24.96
2022-07-29T10:49:17.233Z,25.02
2022-07-29T10:52:26.644Z,25.10
2022-07-29T10:55:43.177Z,25.21
2022-07-29T10:59:22.907Z,25.28
2022-07-29T11:02:42.210Z,25.30
2022-07-29T11:05:59.480Z,25.39
2022-07-29T11:09:34.915Z,25.46
2022-07-29T11:12:48.103Z,25.62
2022-07-29T11:15:56.032Z,25.75
2022-07-29T11:19:14.533Z,25.88
2022-07-29T11:22:46.060Z,26.00
2022-07-29T11:26:23.070Z,26.10
2022-07-29T11:29:27.081Z,26.18
2022-07-29T11:32:39.306Z,26.15
2022-07-29T11:35:42.542Z,26.20
2022-07-29T11:39:43.641Z,26.29
2022-07-29T11:42:51.995Z,26.41
2022-07-29T11:45:55.419Z,26.49
2022-07-29T11:48:59.781Z,26.52
2022-07-29T11:52:04.111Z,26.54
2022-07-29T11:55:10.247Z,26.55
2022-07-29T11:58:16.683Z,26.64
2022-07-29T12:01:22.558Z,26.74
2022-07-29T12:04:25.943Z,26.90
2022-07-29T12:07:34.973Z,26.98
2022-07-29T12:10:39.408Z,27.06
2022-07-29T12:13:42.430Z,27.14
2022-07-29T12:16:45.540Z,27.25
2022-07-29T12:19:48.995Z,27.34
2022-07-29T12:22:55.705Z,27.45
2022-07-29T12:25:59.681Z,27.59
2022-07-29T12:29:03.543Z,27.73
2022-07-29T12:32:15.029Z,27.87
2022-07-29T12:35:23.500Z,28.05
2022-07-29T12:38:27.234Z,28.08
2022-07-29T12:41:31.086Z,28.08
2022-07-29T12:44:51.235Z,28.18
2022-07-29T12:47:54.682Z,28.19
2022-07-29T12:51:00.677Z,28.21
2022-07-29T12:54:05.496Z,28.19
2022-07-29T12:57:08.564Z,28.16
2022-07-29T13:00:25.177Z,28.17
2022-07-29T13:03:28.525Z,28.20
2022-07-29T13:06:46.023Z,28.31
2022-07-29T13:09:54.045Z,28.44
2022-07-29T13:13:02.924Z,28.44
2022-07-29T13:16:08.931Z,28.68
2022-07-29T13:19:13.371Z,29.11
2022-07-29T13:22:18.841Z,29.48
2022-07-29T13:25:27.551Z,29.65
2022-07-29T13:28:30.475Z,29.54
2022-07-29T13:31:33.654Z,29.35
2022-07-29T13:34:36.623Z,29.34
2022-07-29T13:37:39.819Z,29.42
2022-07-29T13:40:43.085Z,29.49
2022-07-29T13:43:46.056Z,29.56
2022-07-29T13:46:52.915Z,29.63
2022-07-29T13:49:56.446Z,29.63
2022-07-29T13:52:59.676Z,29.62
2022-07-29T13:56:02.648Z,29.68
2022-07-29T13:59:05.630Z,29.75
2022-07-29T14:02:10.072Z,29.86
2022-07-29T14:05:13.192Z,29.79
2022-07-29T14:08:16.280Z,29.91
2022-07-29T14:11:19.149Z,30.20
2022-07-29T14:14:22.430Z,30.43
2022-07-29T14:17:25.473Z,30.66
2022-07-29T14:20:31.039Z,30.97
2022-07-29T14:23:34.009Z,31.15
2022-07-29T14:26:37.412Z,31.25
2022-07-29T14:29:40.470Z,31.08
2022-07-29T14:32:43.446Z,30.65
2022-07-29T14:35:48.967Z,30.31
2022-07-29T14:38:52.051Z,30.08
2022-07-29T14:42:01.814Z,29.86
2022-07-29T14:45:10.227Z,29.69
2022-07-29T14:48:13.245Z,29.49
2022-07-29T14:51:16.526Z,29.42
2022-07-29T14:54:19.905Z,29.57
2022-07-29T14:57:23.082Z,29.72
2022-07-29T15:00:26.974Z,29.86
2022-07-29T15:03:29.975Z,30.19
2022-07-29T15:06:37.731Z,30.69
2022-07-29T15:09:49.478Z,31.00
2022-07-29T15:12:53.605Z,30.86
2022-07-29T15:16:00.082Z,30.39
2022-07-29T15:19:04.844Z,30.04
2022-07-29T15:22:15.907Z,30.04
2022-07-29T15:25:19.114Z,30.38
2022-07-29T15:28:28.844Z,30.80
2022-07-29T15:31:38.257Z,31.17
2022-07-29T15:34:42.035Z,31.41
2022-07-29T15:37:49.626Z,31.60
2022-07-29T15:40:56.069Z,31.81
2022-07-29T15:44:04.318Z,31.92
2022-07-29T15:47:08.359Z,31.79
2022-07-29T15:50:16.448Z,31.56
2022-07-29T15:53:19.847Z,31.54
2022-07-29T15:56:25.769Z,31.49
2022-07-29T15:59:29.357Z,31.29
2022-07-29T16:02:35.237Z,31.11
2022-07-29T16:05:39.083Z,30.91
2022-07-29T16:08:42.463Z,30.79
2022-07-29T16:11:46.901Z,30.69
2022-07-29T16:14:51.463Z,30.40
2022-07-29T16:17:54.964Z,30.10
2022-07-29T16:20:58.827Z,29.92
2022-07-29T16:24:02.235Z,29.72
2022-07-29T16:27:05.625Z,29.44
2022-07-29T16:30:12.204Z,29.22
2022-07-29T16:33:15.248Z,29.16
2022-07-29T16:36:19.666Z,29.23
2022-07-29T16:39:23.137Z,29.39
2022-07-29T16:42:45.669Z,29.49
2022-07-29T16:45:51.004Z,29.43
2022-07-29T16:48:56.850Z,29.48
2022-07-29T16:52:06.776Z,29.50
2022-07-29T16:55:09.925Z,29.40
2022-07-29T16:58:12.901Z,29.34
2022-07-29T17:01:17.632Z,29.35
2022-07-29T17:04:32.569Z,29.31
2022-07-29T17:07:42.604Z,29.33
2022-07-29T17:10:46.339Z,29.34
2022-07-29T17:13:50.181Z,29.26
2022-07-29T17:17:04.941Z,29.12
2022-07-29T17:20:18.188Z,29.00
2022-07-29T17:23:21.415Z,28.84
2022-07-29T17:26:28.173Z,28.82
2022-07-29T17:29:35.746Z,28.85
2022-07-29T17:32:45.154Z,28.84
2022-07-29T17:36:07.061Z,28.86
2022-07-29T17:39:13.557Z,28.90
2022-07-29T17:42:16.859Z,28.95
2022-07-29T17:45:22.016Z,28.96
2022-07-29T17:48:25.195Z,28.99
2022-07-29T17:51:32.787Z,28.87
2022-07-29T17:54:39.577Z,28.83
2022-07-29T17:57:43.546Z,28.80
2022-07-29T18:00:50.310Z,28.75
2022-07-29T18:04:00.155Z,28.63
2022-07-29T18:07:06.769Z,28.53
2022-07-29T18:10:15.678Z,28.48
2022-07-29T18:13:29.397Z,28.42
2022-07-29T18:16:35.375Z,28.37
2022-07-29T18:19:41.477Z,28.28
2022-07-29T18:22:49.880Z,28.12
2022-07-29T18:25:56.743Z,27.95
2022-07-29T18:29:02.782Z,27.78
2022-07-29T18:32:06.473Z,27.60
2022-07-29T18:35:10.623Z,27.43
2022-07-29T18:38:14.354Z,27.27
2022-07-29T18:41:17.642Z,27.12
2022-07-29T18:44:25.830Z,26.94
2022-07-29T18:47:32.273Z,26.81
2022-07-29T18:50:36.503Z,26.69
2022-07-29T18:53:39.460Z,26.61
2022-07-29T18:56:42.687Z,26.51
2022-07-29T18:59:45.908Z,26.44
2022-07-29T19:02:49.024Z,26.36
2022-07-29T19:05:52.160Z,26.30
2022-07-29T19:08:55.541Z,26.22
2022-07-29T19:12:01.969Z,26.13
2022-07-29T19:15:08.420Z,26.04
2022-07-29T19:18:13.567Z,25.97
2022-07-29T19:21:16.664Z,25.89
2022-07-29T19:24:20.333Z,25.81
2022-07-29T19:27:24.048Z,25.77
2022-07-29T19:30:28.531Z,25.70
2022-07-29T19:33:33.100Z,25.59
2022-07-29T19:36:37.236Z,25.53
2022-07-29T19:39:42.876Z,25.46
2022-07-29T19:42:46.047Z,25.38
2022-07-29T19:45:50.402Z,25.31
2022-07-29T19:48:53.991Z,25.21
2022-07-29T19:51:57.016Z,25.12
2022-07-29T19:55:05.292Z,25.04
2022-07-29T19:58:10.426Z,24.99
2022-07-29T20:01:13.913Z,24.97
2022-07-29T20:04:19.911Z,24.95
2022-07-29T20:07:22.930Z,24.90
2022-07-29T20:10:26.603Z,24.86
2022-07-29T20:13:31.921Z,24.81
2022-07-29T20:16:35.316Z,24.76
2022-07-29T20:19:38.238Z,24.72
2022-07-29T20:22:44.646Z,24.67
2022-07-29T20:25:48.592Z,24.62
2022-07-29T20:28:51.617Z,24.59
2022-07-29T20:31:56.721Z,24.57
2022-07-29T20:35:02.385Z,24.53
2022-07-29T20:38:05.683Z,24.49
2022-07-29T20:41:09.112Z,24.44
2022-07-29T20:44:12.007Z,24.40
2022-07-29T20:47:17.785Z,24.34
2022-07-29T20:50:23.744Z,24.28
2022-07-29T20:53:27.915Z,24.20
2022-07-29T20:56:31.606Z,24.14
2022-07-29T20:59:35.989Z,24.07
2022-07-29T21:02:39.314Z,24.03
2022-07-29T21:05:45.457Z,23.97
2022-07-29T21:08:48.475Z,23.92
2022-07-29T21:11:53.698Z,23.86
2022-07-29T21:14:59.315Z,23.82
2022-07-29T21:18:05.891Z,23.78
2022-07-29T21:21:08.962Z,23.72
2022-07-29T21:24:12.243Z,23.64
2022-07-29T21:27:38.415Z,23.59
2022-07-29T21:30:41.825Z,23.48
2022-07-29T21:33:46.892Z,23.45
2022-07-29T21:36:51.347Z,23.44
2022-07-29T21:39:54.524Z,23.39
2022-07-29T21:42:57.395Z,23.37
2022-07-29T21:46:01.168Z,23.39
2022-07-29T21:49:04.640Z,23.36
2022-07-29T21:52:10.557Z,23.31
2022-07-29T21:55:14.707Z,23.25
2022-07-29T21:58:26.419Z,23.23
2022-07-29T22:01:38.969Z,23.18
2022-07-29T22:04:45.486Z,23.12
2022-07-29T22:07:55.357Z,23.06
2022-07-29T22:11:12.741Z,23.00
2022-07-29T22:14:20.532Z,22.97
2022-07-29T22:17:31.010Z,22.92
2022-07-29T22:20:47.035Z,22.87
2022-07-29T22:23:50.338Z,22.85
2022-07-29T22:26:53.097Z,22.83
2022-07-29T22:29:57.097Z,22.84
2022-07-29T22:32:59.967Z,22.78
2022-07-29T22:36:02.990Z,22.74
2022-07-29T22:39:06.217Z,22.69
2022-07-29T22:42:09.289Z,22.64
2022-07-29T22:45:12.368Z,22.62
2022-07-29T22:48:16.564Z,22.61
2022-07-29T22:51:19.437Z,22.55
2022-07-29T22:54:22.410Z,22.51
2022-07-29T22:57:26.095Z,22.47
2022-07-29T23:00:29.271Z,22.44
2022-07-29T23:03:32.172Z,22.41
2022-07-29T23:06:35.013Z,22.39
2022-07-29T23:09:38.091Z,22.36
2022-07-29T23:12:42.493Z,22.32
2022-07-29T23:15:46.594Z,22.30
2022-07-29T23:18:49.564Z,22.25
2022-07-29T23:21:54.994Z,22.20
2022-07-29T23:24:57.860Z,22.17
2022-07-29T23:28:01.044Z,22.13
2022-07-29T23:31:03.974Z,22.11
2022-07-29T23:34:06.897Z,22.07
2022-07-29T23:37:09.851Z,22.03
2022-07-29T23:40:14.785Z,21.97
2022-07-29T23:43:18.049Z,21.94
2022-07-29T23:46:23.680Z,21.90
2022-07-29T23:49:28.223Z,21.86
2022-07-29T23:52:31.105Z,21.83
2022-07-29T23:55:36.958Z,21.79
2022-07-29T23:58:42.017Z,21.74
